CheckWX is a tool to help pilots better visualize weather data.  It is not intended as a substitute for an official pre-flight weather briefing.

17:58:29 UTC

FKYS METAR
Yaoundé Nsimalen International Airport
Yaoundé, Cameroon
Current

58 mins ago

FKYS 171700Z 09002KT 4000 HZ SCT020 29/21 Q1014 NOSIG
Observed
Feb-17 @ 17:00 UTC
Wind
  • 090° at 2 KTS
Visibility
4,007 meters
Flight Rules
IFR
Conditions
Haze
Cloud Levels
  • Scattered at 2,000' AGL
Temperature
29°C / 84°F
Dewpoint
21°C / 70°F
Humidity
62%
Altimeter
29.94" Hg
Pressure
1013.92 hPa
Previous

2 hours ago

FKYS 171600Z 14003KT 100V180 4000 HZ SCT020 31/20 Q1013 NOSIG
Observed
Feb-17 @ 16:00 UTC
Wind
  • 140° at 3 KTS
Visibility
4,007 meters
Flight Rules
IFR
Conditions
Haze
Cloud Levels
  • Scattered at 2,000' AGL
Temperature
31°C / 88°F
Dewpoint
20°C / 68°F
Humidity
52%
Altimeter
29.91" Hg
Pressure
1012.92 hPa
Previous

3 hours ago

FKYS 171500Z VRB02KT 4000 HZ SCT020 32/19 Q1013 NOSIG
Observed
Feb-17 @ 15:00 UTC
Wind
  • Variable at 2 KTS
Visibility
4,007 meters
Flight Rules
IFR
Conditions
Haze
Cloud Levels
  • Scattered at 2,000' AGL
Temperature
32°C / 90°F
Dewpoint
19°C / 66°F
Humidity
46%
Altimeter
29.91" Hg
Pressure
1012.92 hPa